sensor_id;sensor_type;location;lat;lon;timestamp;P1;durP1;ratioP1;P2;durP2;ratioP2
40997;SDS011;26740;45.944;12.480;2022-11-20T00:01:07;4.00;;;1.67;;
40997;SDS011;26740;45.944;12.480;2022-11-20T00:03:38;2.95;;;1.52;;
40997;SDS011;26740;45.944;12.480;2022-11-20T00:06:05;2.17;;;1.05;;
40997;SDS011;26740;45.944;12.480;2022-11-20T00:08:33;7.05;;;2.03;;
40997;SDS011;26740;45.944;12.480;2022-11-20T00:11:02;2.50;;;1.55;;
40997;SDS011;26740;45.944;12.480;2022-11-20T00:13:32;3.55;;;1.63;;
40997;SDS011;26740;45.944;12.480;2022-11-20T00:15:58;2.72;;;1.38;;
40997;SDS011;26740;45.944;12.480;2022-11-20T00:18:26;2.03;;;1.20;;
40997;SDS011;26740;45.944;12.480;2022-11-20T00:20:52;5.18;;;2.00;;
40997;SDS011;26740;45.944;12.480;2022-11-20T00:23:18;5.85;;;2.90;;
40997;SDS011;26740;45.944;12.480;2022-11-20T00:25:43;4.53;;;2.42;;
40997;SDS011;26740;45.944;12.480;2022-11-20T00:28:09;3.63;;;1.60;;
40997;SDS011;26740;45.944;12.480;2022-11-20T00:30:34;5.05;;;2.08;;
40997;SDS011;26740;45.944;12.480;2022-11-20T00:33:00;4.82;;;2.00;;
40997;SDS011;26740;45.944;12.480;2022-11-20T00:35:26;2.83;;;1.30;;
40997;SDS011;26740;45.944;12.480;2022-11-20T00:37:51;4.22;;;1.45;;
40997;SDS011;26740;45.944;12.480;2022-11-20T00:40:17;3.60;;;1.52;;
40997;SDS011;26740;45.944;12.480;2022-11-20T00:42:42;3.08;;;2.05;;
40997;SDS011;26740;45.944;12.480;2022-11-20T00:45:08;4.85;;;2.25;;
40997;SDS011;26740;45.944;12.480;2022-11-20T00:47:34;6.63;;;2.45;;
40997;SDS011;26740;45.944;12.480;2022-11-20T00:49:59;6.65;;;2.58;;
40997;SDS011;26740;45.944;12.480;2022-11-20T00:52:25;4.53;;;2.47;;
40997;SDS011;26740;45.944;12.480;2022-11-20T00:54:50;8.52;;;3.15;;
40997;SDS011;26740;45.944;12.480;2022-11-20T00:57:16;4.72;;;2.40;;
40997;SDS011;26740;45.944;12.480;2022-11-20T00:59:41;6.18;;;2.80;;
40997;SDS011;26740;45.944;12.480;2022-11-20T01:02:07;5.53;;;2.47;;
40997;SDS011;26740;45.944;12.480;2022-11-20T01:04:33;4.07;;;1.92;;
40997;SDS011;26740;45.944;12.480;2022-11-20T01:06:58;4.35;;;2.17;;
40997;SDS011;26740;45.944;12.480;2022-11-20T01:09:24;6.47;;;2.60;;
40997;SDS011;26740;45.944;12.480;2022-11-20T01:11:49;8.60;;;3.10;;
40997;SDS011;26740;45.944;12.480;2022-11-20T01:14:16;4.43;;;2.50;;
40997;SDS011;26740;45.944;12.480;2022-11-20T01:16:45;5.65;;;2.10;;
40997;SDS011;26740;45.944;12.480;2022-11-20T01:19:14;5.93;;;2.78;;
40997;SDS011;26740;45.944;12.480;2022-11-20T01:21:42;4.60;;;2.78;;
40997;SDS011;26740;45.944;12.480;2022-11-20T01:24:12;5.30;;;2.72;;
40997;SDS011;26740;45.944;12.480;2022-11-20T01:26:40;4.82;;;2.03;;
40997;SDS011;26740;45.944;12.480;2022-11-20T01:29:14;4.75;;;2.28;;
40997;SDS011;26740;45.944;12.480;2022-11-20T01:31:45;2.80;;;1.35;;
40997;SDS011;26740;45.944;12.480;2022-11-20T01:34:15;4.63;;;1.42;;
40997;SDS011;26740;45.944;12.480;2022-11-20T01:36:43;4.05;;;1.63;;
40997;SDS011;26740;45.944;12.480;2022-11-20T01:39:11;4.05;;;1.90;;
40997;SDS011;26740;45.944;12.480;2022-11-20T01:41:39;8.50;;;1.73;;
40997;SDS011;26740;45.944;12.480;2022-11-20T01:47:21;4.60;;;2.58;;
40997;SDS011;26740;45.944;12.480;2022-11-20T01:49:54;4.85;;;2.22;;
40997;SDS011;26740;45.944;12.480;2022-11-20T01:52:49;4.93;;;2.28;;
40997;SDS011;26740;45.944;12.480;2022-11-20T01:55:19;5.00;;;2.50;;
40997;SDS011;26740;45.944;12.480;2022-11-20T01:57:50;8.90;;;2.72;;
40997;SDS011;26740;45.944;12.480;2022-11-20T02:00:17;4.95;;;2.22;;
40997;SDS011;26740;45.944;12.480;2022-11-20T02:02:46;3.10;;;2.13;;
40997;SDS011;26740;45.944;12.480;2022-11-20T02:05:32;4.13;;;2.38;;
40997;SDS011;26740;45.944;12.480;2022-11-20T02:08:04;3.90;;;2.25;;
40997;SDS011;26740;45.944;12.480;2022-11-20T02:10:31;5.25;;;2.55;;
40997;SDS011;26740;45.944;12.480;2022-11-20T02:12:58;7.03;;;3.13;;
40997;SDS011;26740;45.944;12.480;2022-11-20T02:15:43;5.78;;;2.70;;
40997;SDS011;26740;45.944;12.480;2022-11-20T02:18:10;6.88;;;3.25;;
40997;SDS011;26740;45.944;12.480;2022-11-20T02:20:40;8.18;;;3.80;;
40997;SDS011;26740;45.944;12.480;2022-11-20T02:23:11;4.68;;;3.42;;
40997;SDS011;26740;45.944;12.480;2022-11-20T02:25:42;7.25;;;3.70;;
40997;SDS011;26740;45.944;12.480;2022-11-20T02:28:08;6.60;;;3.38;;
40997;SDS011;26740;45.944;12.480;2022-11-20T02:30:35;9.23;;;4.22;;
40997;SDS011;26740;45.944;12.480;2022-11-20T02:33:00;11.68;;;3.35;;
40997;SDS011;26740;45.944;12.480;2022-11-20T02:37:53;8.32;;;3.65;;
40997;SDS011;26740;45.944;12.480;2022-11-20T02:40:20;8.63;;;3.05;;
40997;SDS011;26740;45.944;12.480;2022-11-20T02:42:46;5.10;;;2.85;;
40997;SDS011;26740;45.944;12.480;2022-11-20T02:45:12;7.28;;;3.58;;
40997;SDS011;26740;45.944;12.480;2022-11-20T02:47:38;6.25;;;3.55;;
40997;SDS011;26740;45.944;12.480;2022-11-20T02:50:04;6.40;;;3.00;;
40997;SDS011;26740;45.944;12.480;2022-11-20T02:52:30;7.03;;;2.60;;
40997;SDS011;26740;45.944;12.480;2022-11-20T02:54:56;4.55;;;1.95;;
40997;SDS011;26740;45.944;12.480;2022-11-20T02:57:22;4.72;;;2.28;;
40997;SDS011;26740;45.944;12.480;2022-11-20T02:59:47;3.08;;;1.95;;
40997;SDS011;26740;45.944;12.480;2022-11-20T03:02:13;3.60;;;2.28;;
40997;SDS011;26740;45.944;12.480;2022-11-20T03:04:38;6.30;;;2.33;;
40997;SDS011;26740;45.944;12.480;2022-11-20T03:07:04;4.15;;;1.98;;
40997;SDS011;26740;45.944;12.480;2022-11-20T03:09:30;3.75;;;1.55;;
40997;SDS011;26740;45.944;12.480;2022-11-20T03:11:55;5.78;;;1.90;;
40997;SDS011;26740;45.944;12.480;2022-11-20T03:14:21;3.08;;;1.63;;
40997;SDS011;26740;45.944;12.480;2022-11-20T03:16:47;3.80;;;2.00;;
40997;SDS011;26740;45.944;12.480;2022-11-20T03:19:13;3.25;;;1.60;;
40997;SDS011;26740;45.944;12.480;2022-11-20T03:21:38;2.47;;;1.80;;
40997;SDS011;26740;45.944;12.480;2022-11-20T03:24:04;2.00;;;1.30;;
40997;SDS011;26740;45.944;12.480;2022-11-20T03:26:30;3.50;;;1.63;;
40997;SDS011;26740;45.944;12.480;2022-11-20T03:28:57;3.17;;;1.58;;
40997;SDS011;26740;45.944;12.480;2022-11-20T03:31:26;2.05;;;1.10;;
40997;SDS011;26740;45.944;12.480;2022-11-20T03:33:56;3.80;;;1.55;;
40997;SDS011;26740;45.944;12.480;2022-11-20T03:36:24;3.53;;;1.52;;
40997;SDS011;26740;45.944;12.480;2022-11-20T03:38:50;4.30;;;1.88;;
40997;SDS011;26740;45.944;12.480;2022-11-20T03:41:20;3.25;;;1.65;;
40997;SDS011;26740;45.944;12.480;2022-11-20T03:43:48;3.67;;;1.33;;
40997;SDS011;26740;45.944;12.480;2022-11-20T03:46:18;3.80;;;1.75;;
40997;SDS011;26740;45.944;12.480;2022-11-20T03:48:44;2.90;;;1.40;;
40997;SDS011;26740;45.944;12.480;2022-11-20T03:51:11;4.80;;;1.05;;
40997;SDS011;26740;45.944;12.480;2022-11-20T03:53:39;4.40;;;1.50;;
40997;SDS011;26740;45.944;12.480;2022-11-20T03:56:06;2.45;;;1.45;;
40997;SDS011;26740;45.944;12.480;2022-11-20T03:58:33;2.58;;;1.15;;
40997;SDS011;26740;45.944;12.480;2022-11-20T04:01:08;3.17;;;1.17;;
40997;SDS011;26740;45.944;12.480;2022-11-20T04:03:42;4.03;;;1.70;;
40997;SDS011;26740;45.944;12.480;2022-11-20T04:08:36;2.22;;;1.10;;
40997;SDS011;26740;45.944;12.480;2022-11-20T04:11:09;3.97;;;1.40;;
40997;SDS011;26740;45.944;12.480;2022-11-20T04:13:36;1.67;;;1.10;;
40997;SDS011;26740;45.944;12.480;2022-11-20T04:16:02;2.85;;;1.23;;
40997;SDS011;26740;45.944;12.480;2022-11-20T04:18:29;3.53;;;1.13;;
40997;SDS011;26740;45.944;12.480;2022-11-20T04:20:56;3.25;;;1.25;;
40997;SDS011;26740;45.944;12.480;2022-11-20T04:25:51;2.30;;;1.02;;
40997;SDS011;26740;45.944;12.480;2022-11-20T04:28:17;1.55;;;1.27;;
40997;SDS011;26740;45.944;12.480;2022-11-20T04:30:43;2.65;;;1.40;;
40997;SDS011;26740;45.944;12.480;2022-11-20T04:33:09;4.43;;;1.65;;
40997;SDS011;26740;45.944;12.480;2022-11-20T04:35:35;3.40;;;1.20;;
40997;SDS011;26740;45.944;12.480;2022-11-20T04:38:01;2.03;;;1.20;;
40997;SDS011;26740;45.944;12.480;2022-11-20T04:40:27;3.13;;;1.10;;
40997;SDS011;26740;45.944;12.480;2022-11-20T04:42:53;2.28;;;1.15;;
40997;SDS011;26740;45.944;12.480;2022-11-20T04:45:19;3.78;;;1.17;;
40997;SDS011;26740;45.944;12.480;2022-11-20T04:47:45;2.88;;;1.27;;
40997;SDS011;26740;45.944;12.480;2022-11-20T04:50:11;4.75;;;1.20;;
40997;SDS011;26740;45.944;12.480;2022-11-20T04:52:37;1.95;;;1.35;;
40997;SDS011;26740;45.944;12.480;2022-11-20T04:55:03;1.20;;;0.95;;
40997;SDS011;26740;45.944;12.480;2022-11-20T04:57:29;3.00;;;1.42;;
40997;SDS011;26740;45.944;12.480;2022-11-20T04:59:55;2.40;;;1.23;;
40997;SDS011;26740;45.944;12.480;2022-11-20T05:02:20;2.80;;;1.02;;
40997;SDS011;26740;45.944;12.480;2022-11-20T05:04:46;3.13;;;1.40;;
40997;SDS011;26740;45.944;12.480;2022-11-20T05:07:12;13.80;;;1.77;;
40997;SDS011;26740;45.944;12.480;2022-11-20T05:09:38;3.03;;;0.90;;
40997;SDS011;26740;45.944;12.480;2022-11-20T05:12:03;5.63;;;1.48;;
40997;SDS011;26740;45.944;12.480;2022-11-20T05:14:29;2.15;;;1.08;;
40997;SDS011;26740;45.944;12.480;2022-11-20T05:16:55;3.15;;;0.90;;
40997;SDS011;26740;45.944;12.480;2022-11-20T05:19:20;2.72;;;1.30;;
40997;SDS011;26740;45.944;12.480;2022-11-20T05:21:46;2.13;;;0.80;;
40997;SDS011;26740;45.944;12.480;2022-11-20T05:24:12;2.15;;;0.93;;
40997;SDS011;26740;45.944;12.480;2022-11-20T05:26:37;2.50;;;0.85;;
40997;SDS011;26740;45.944;12.480;2022-11-20T05:29:03;2.50;;;1.10;;
40997;SDS011;26740;45.944;12.480;2022-11-20T05:31:29;4.68;;;1.02;;
40997;SDS011;26740;45.944;12.480;2022-11-20T05:33:55;2.42;;;0.90;;
40997;SDS011;26740;45.944;12.480;2022-11-20T05:36:22;1.50;;;0.82;;
40997;SDS011;26740;45.944;12.480;2022-11-20T05:38:48;1.92;;;0.80;;
40997;SDS011;26740;45.944;12.480;2022-11-20T05:41:15;2.42;;;0.93;;
40997;SDS011;26740;45.944;12.480;2022-11-20T05:43:43;3.33;;;0.80;;
40997;SDS011;26740;45.944;12.480;2022-11-20T05:46:10;1.30;;;0.60;;
40997;SDS011;26740;45.944;12.480;2022-11-20T05:48:38;1.42;;;0.50;;
40997;SDS011;26740;45.944;12.480;2022-11-20T05:51:06;3.35;;;1.63;;
40997;SDS011;26740;45.944;12.480;2022-11-20T05:53:34;3.47;;;0.60;;
40997;SDS011;26740;45.944;12.480;2022-11-20T05:56:01;1.40;;;0.75;;
40997;SDS011;26740;45.944;12.480;2022-11-20T05:58:27;1.40;;;0.70;;
40997;SDS011;26740;45.944;12.480;2022-11-20T06:00:53;1.58;;;0.80;;
40997;SDS011;26740;45.944;12.480;2022-11-20T06:03:19;2.42;;;0.90;;
40997;SDS011;26740;45.944;12.480;2022-11-20T06:05:45;1.88;;;0.77;;
40997;SDS011;26740;45.944;12.480;2022-11-20T06:08:11;7.28;;;0.77;;
40997;SDS011;26740;45.944;12.480;2022-11-20T06:10:37;1.95;;;1.00;;
40997;SDS011;26740;45.944;12.480;2022-11-20T06:13:03;3.42;;;1.13;;
40997;SDS011;26740;45.944;12.480;2022-11-20T06:15:28;2.20;;;0.80;;
40997;SDS011;26740;45.944;12.480;2022-11-20T06:17:54;3.58;;;0.82;;
40997;SDS011;26740;45.944;12.480;2022-11-20T06:20:21;2.45;;;0.93;;
40997;SDS011;26740;45.944;12.480;2022-11-20T06:22:47;5.20;;;0.65;;
40997;SDS011;26740;45.944;12.480;2022-11-20T06:25:12;2.88;;;1.15;;
40997;SDS011;26740;45.944;12.480;2022-11-20T06:27:38;3.88;;;0.63;;
40997;SDS011;26740;45.944;12.480;2022-11-20T06:30:04;7.50;;;1.30;;
40997;SDS011;26740;45.944;12.480;2022-11-20T06:32:30;6.32;;;1.38;;
40997;SDS011;26740;45.944;12.480;2022-11-20T06:34:55;1.45;;;0.73;;
40997;SDS011;26740;45.944;12.480;2022-11-20T06:37:21;2.50;;;0.70;;
40997;SDS011;26740;45.944;12.480;2022-11-20T06:39:46;2.38;;;0.98;;
40997;SDS011;26740;45.944;12.480;2022-11-20T06:42:12;1.75;;;0.95;;
40997;SDS011;26740;45.944;12.480;2022-11-20T06:44:37;3.50;;;1.00;;
40997;SDS011;26740;45.944;12.480;2022-11-20T06:47:03;2.97;;;0.93;;
40997;SDS011;26740;45.944;12.480;2022-11-20T06:49:29;3.42;;;1.52;;
40997;SDS011;26740;45.944;12.480;2022-11-20T06:51:54;17.33;;;4.93;;
40997;SDS011;26740;45.944;12.480;2022-11-20T06:54:20;5.78;;;2.35;;
40997;SDS011;26740;45.944;12.480;2022-11-20T06:56:48;50.90;;;16.95;;
40997;SDS011;26740;45.944;12.480;2022-11-20T06:59:14;12.00;;;4.38;;
40997;SDS011;26740;45.944;12.480;2022-11-20T07:01:40;20.40;;;6.93;;
40997;SDS011;26740;45.944;12.480;2022-11-20T07:04:06;4.25;;;1.92;;
40997;SDS011;26740;45.944;12.480;2022-11-20T07:06:31;5.15;;;1.85;;
40997;SDS011;26740;45.944;12.480;2022-11-20T07:08:57;4.30;;;1.60;;
40997;SDS011;26740;45.944;12.480;2022-11-20T07:11:23;4.03;;;2.22;;
40997;SDS011;26740;45.944;12.480;2022-11-20T07:13:48;2.58;;;1.70;;
40997;SDS011;26740;45.944;12.480;2022-11-20T07:16:14;4.18;;;1.50;;
40997;SDS011;26740;45.944;12.480;2022-11-20T07:18:40;3.13;;;1.65;;
40997;SDS011;26740;45.944;12.480;2022-11-20T07:21:07;2.03;;;1.15;;
40997;SDS011;26740;45.944;12.480;2022-11-20T07:23:33;4.15;;;1.92;;
40997;SDS011;26740;45.944;12.480;2022-11-20T07:26:06;3.63;;;1.55;;
40997;SDS011;26740;45.944;12.480;2022-11-20T07:28:32;4.10;;;2.15;;
40997;SDS011;26740;45.944;12.480;2022-11-20T07:30:59;4.30;;;1.83;;
40997;SDS011;26740;45.944;12.480;2022-11-20T07:33:24;4.55;;;2.20;;
40997;SDS011;26740;45.944;12.480;2022-11-20T07:35:50;6.13;;;2.17;;
40997;SDS011;26740;45.944;12.480;2022-11-20T07:38:16;4.03;;;2.20;;
40997;SDS011;26740;45.944;12.480;2022-11-20T07:40:41;4.78;;;2.75;;
40997;SDS011;26740;45.944;12.480;2022-11-20T07:43:07;6.00;;;3.10;;
40997;SDS011;26740;45.944;12.480;2022-11-20T07:45:32;6.28;;;2.97;;
40997;SDS011;26740;45.944;12.480;2022-11-20T07:47:58;10.27;;;4.00;;
40997;SDS011;26740;45.944;12.480;2022-11-20T07:50:24;7.10;;;4.18;;
40997;SDS011;26740;45.944;12.480;2022-11-20T07:52:49;6.72;;;4.85;;
40997;SDS011;26740;45.944;12.480;2022-11-20T07:55:15;23.30;;;14.45;;
40997;SDS011;26740;45.944;12.480;2022-11-20T07:57:41;19.25;;;11.60;;
40997;SDS011;26740;45.944;12.480;2022-11-20T08:00:07;12.60;;;8.25;;
40997;SDS011;26740;45.944;12.480;2022-11-20T08:02:39;13.88;;;8.15;;
40997;SDS011;26740;45.944;12.480;2022-11-20T08:05:05;9.77;;;6.87;;
40997;SDS011;26740;45.944;12.480;2022-11-20T08:07:39;9.38;;;6.00;;
40997;SDS011;26740;45.944;12.480;2022-11-20T08:10:07;10.23;;;5.35;;
40997;SDS011;26740;45.944;12.480;2022-11-20T08:12:34;8.27;;;6.75;;
40997;SDS011;26740;45.944;12.480;2022-11-20T08:15:18;11.05;;;3.53;;
40997;SDS011;26740;45.944;12.480;2022-11-20T08:17:43;6.32;;;3.25;;
40997;SDS011;26740;45.944;12.480;2022-11-20T08:20:09;5.35;;;3.28;;
40997;SDS011;26740;45.944;12.480;2022-11-20T08:22:35;6.78;;;3.17;;
40997;SDS011;26740;45.944;12.480;2022-11-20T08:25:01;5.47;;;3.30;;
40997;SDS011;26740;45.944;12.480;2022-11-20T08:27:26;6.90;;;4.43;;
40997;SDS011;26740;45.944;12.480;2022-11-20T08:29:52;8.02;;;4.32;;
40997;SDS011;26740;45.944;12.480;2022-11-20T08:32:18;6.35;;;3.83;;
40997;SDS011;26740;45.944;12.480;2022-11-20T08:34:44;5.32;;;3.72;;
40997;SDS011;26740;45.944;12.480;2022-11-20T08:37:09;3.70;;;2.67;;
40997;SDS011;26740;45.944;12.480;2022-11-20T08:39:35;3.33;;;2.55;;
40997;SDS011;26740;45.944;12.480;2022-11-20T08:42:00;8.07;;;2.88;;
40997;SDS011;26740;45.944;12.480;2022-11-20T08:44:26;3.95;;;3.30;;
40997;SDS011;26740;45.944;12.480;2022-11-20T08:46:52;4.07;;;3.17;;
40997;SDS011;26740;45.944;12.480;2022-11-20T08:49:17;4.88;;;2.97;;
40997;SDS011;26740;45.944;12.480;2022-11-20T08:51:44;3.83;;;2.72;;
40997;SDS011;26740;45.944;12.480;2022-11-20T08:54:10;3.70;;;2.88;;
40997;SDS011;26740;45.944;12.480;2022-11-20T08:56:35;5.00;;;3.72;;
40997;SDS011;26740;45.944;12.480;2022-11-20T08:59:01;3.60;;;2.65;;
40997;SDS011;26740;45.944;12.480;2022-11-20T09:01:27;5.07;;;3.20;;
40997;SDS011;26740;45.944;12.480;2022-11-20T09:03:57;4.50;;;3.17;;
40997;SDS011;26740;45.944;12.480;2022-11-20T09:06:23;4.88;;;2.95;;
40997;SDS011;26740;45.944;12.480;2022-11-20T09:08:52;4.05;;;2.97;;
40997;SDS011;26740;45.944;12.480;2022-11-20T09:11:18;5.07;;;3.13;;
40997;SDS011;26740;45.944;12.480;2022-11-20T09:13:44;6.53;;;3.38;;
40997;SDS011;26740;45.944;12.480;2022-11-20T09:16:09;5.53;;;3.33;;
40997;SDS011;26740;45.944;12.480;2022-11-20T09:18:36;5.43;;;2.90;;
40997;SDS011;26740;45.944;12.480;2022-11-20T09:21:03;2.97;;;2.22;;
40997;SDS011;26740;45.944;12.480;2022-11-20T09:23:31;5.95;;;2.85;;
40997;SDS011;26740;45.944;12.480;2022-11-20T09:26:03;5.10;;;2.72;;
40997;SDS011;26740;45.944;12.480;2022-11-20T09:28:30;5.93;;;2.92;;
40997;SDS011;26740;45.944;12.480;2022-11-20T09:30:57;3.00;;;2.65;;
40997;SDS011;26740;45.944;12.480;2022-11-20T09:33:23;3.70;;;2.28;;
40997;SDS011;26740;45.944;12.480;2022-11-20T09:35:49;2.25;;;1.92;;
40997;SDS011;26740;45.944;12.480;2022-11-20T09:38:14;3.78;;;1.27;;
40997;SDS011;26740;45.944;12.480;2022-11-20T09:40:43;2.58;;;1.27;;
40997;SDS011;26740;45.944;12.480;2022-11-20T09:43:24;4.05;;;1.35;;
40997;SDS011;26740;45.944;12.480;2022-11-20T09:46:04;2.20;;;1.80;;
40997;SDS011;26740;45.944;12.480;2022-11-20T09:48:47;2.80;;;1.90;;
40997;SDS011;26740;45.944;12.480;2022-11-20T09:56:52;1.27;;;1.08;;
40997;SDS011;26740;45.944;12.480;2022-11-20T09:59:56;2.22;;;1.55;;
40997;SDS011;26740;45.944;12.480;2022-11-20T10:04:49;1.67;;;1.40;;
40997;SDS011;26740;45.944;12.480;2022-11-20T10:07:27;3.00;;;1.02;;
40997;SDS011;26740;45.944;12.480;2022-11-20T10:10:16;2.20;;;1.08;;
40997;SDS011;26740;45.944;12.480;2022-11-20T10:13:09;2.08;;;1.17;;
40997;SDS011;26740;45.944;12.480;2022-11-20T10:18:49;2.25;;;1.25;;
40997;SDS011;26740;45.944;12.480;2022-11-20T10:29:38;2.45;;;0.93;;
40997;SDS011;26740;45.944;12.480;2022-11-20T10:32:16;0.95;;;0.82;;
40997;SDS011;26740;45.944;12.480;2022-11-20T10:37:18;1.67;;;0.95;;
40997;SDS011;26740;45.944;12.480;2022-11-20T10:48:01;1.13;;;0.45;;
40997;SDS011;26740;45.944;12.480;2022-11-20T10:50:41;2.20;;;0.77;;
40997;SDS011;26740;45.944;12.480;2022-11-20T10:53:21;1.88;;;1.08;;
40997;SDS011;26740;45.944;12.480;2022-11-20T10:56:07;2.47;;;0.90;;
40997;SDS011;26740;45.944;12.480;2022-11-20T11:01:40;2.03;;;0.95;;
40997;SDS011;26740;45.944;12.480;2022-11-20T11:04:15;2.72;;;1.05;;
40997;SDS011;26740;45.944;12.480;2022-11-20T11:06:54;3.58;;;0.85;;
40997;SDS011;26740;45.944;12.480;2022-11-20T11:09:32;1.52;;;0.88;;
40997;SDS011;26740;45.944;12.480;2022-11-20T11:12:01;2.35;;;1.02;;
40997;SDS011;26740;45.944;12.480;2022-11-20T11:14:32;2.75;;;1.15;;
40997;SDS011;26740;45.944;12.480;2022-11-20T11:17:17;1.80;;;1.00;;
40997;SDS011;26740;45.944;12.480;2022-11-20T11:19:56;1.40;;;0.70;;
40997;SDS011;26740;45.944;12.480;2022-11-20T11:22:28;1.55;;;0.73;;
40997;SDS011;26740;45.944;12.480;2022-11-20T11:24:58;2.60;;;1.02;;
40997;SDS011;26740;45.944;12.480;2022-11-20T11:27:24;2.42;;;0.85;;
40997;SDS011;26740;45.944;12.480;2022-11-20T11:29:50;0.95;;;0.70;;
40997;SDS011;26740;45.944;12.480;2022-11-20T11:32:27;2.47;;;0.82;;
40997;SDS011;26740;45.944;12.480;2022-11-20T11:35:00;1.88;;;0.70;;
40997;SDS011;26740;45.944;12.480;2022-11-20T11:37:36;1.15;;;0.73;;
40997;SDS011;26740;45.944;12.480;2022-11-20T11:40:04;1.40;;;0.73;;
40997;SDS011;26740;45.944;12.480;2022-11-20T11:42:31;2.10;;;0.90;;
40997;SDS011;26740;45.944;12.480;2022-11-20T11:44:59;1.13;;;0.63;;
40997;SDS011;26740;45.944;12.480;2022-11-20T11:58:14;1.85;;;0.85;;
40997;SDS011;26740;45.944;12.480;2022-11-20T12:01:04;2.78;;;0.50;;
40997;SDS011;26740;45.944;12.480;2022-11-20T12:03:55;2.10;;;0.97;;
40997;SDS011;26740;45.944;12.480;2022-11-20T12:06:56;1.25;;;0.77;;
40997;SDS011;26740;45.944;12.480;2022-11-20T12:09:29;1.20;;;0.70;;
40997;SDS011;26740;45.944;12.480;2022-11-20T12:12:05;4.60;;;1.08;;
40997;SDS011;26740;45.944;12.480;2022-11-20T12:14:39;3.28;;;0.60;;
40997;SDS011;26740;45.944;12.480;2022-11-20T12:17:11;4.18;;;0.93;;
40997;SDS011;26740;45.944;12.480;2022-11-20T12:19:38;4.00;;;0.70;;
40997;SDS011;26740;45.944;12.480;2022-11-20T12:27:51;2.05;;;0.77;;
40997;SDS011;26740;45.944;12.480;2022-11-20T12:30:23;1.75;;;0.40;;
40997;SDS011;26740;45.944;12.480;2022-11-20T12:47:53;0.70;;;0.30;;
40997;SDS011;26740;45.944;12.480;2022-11-20T13:01:51;0.60;;;0.40;;
40997;SDS011;26740;45.944;12.480;2022-11-20T13:07:24;2.13;;;0.40;;
40997;SDS011;26740;45.944;12.480;2022-11-20T13:09:53;2.08;;;0.50;;
40997;SDS011;26740;45.944;12.480;2022-11-20T13:12:54;4.53;;;0.65;;
40997;SDS011;26740;45.944;12.480;2022-11-20T13:18:16;2.50;;;0.43;;
40997;SDS011;26740;45.944;12.480;2022-11-20T13:20:43;1.75;;;0.60;;
40997;SDS011;26740;45.944;12.480;2022-11-20T13:23:10;0.93;;;0.45;;
40997;SDS011;26740;45.944;12.480;2022-11-20T13:25:36;4.22;;;0.70;;
40997;SDS011;26740;45.944;12.480;2022-11-20T13:28:04;1.17;;;0.35;;
40997;SDS011;26740;45.944;12.480;2022-11-20T13:30:54;1.73;;;0.75;;
40997;SDS011;26740;45.944;12.480;2022-11-20T13:35:57;6.22;;;1.00;;
40997;SDS011;26740;45.944;12.480;2022-11-20T13:38:24;4.47;;;0.43;;
40997;SDS011;26740;45.944;12.480;2022-11-20T13:40:54;2.20;;;0.50;;
40997;SDS011;26740;45.944;12.480;2022-11-20T13:43:26;2.80;;;0.50;;
40997;SDS011;26740;45.944;12.480;2022-11-20T13:46:04;0.52;;;0.30;;
40997;SDS011;26740;45.944;12.480;2022-11-20T13:48:38;1.98;;;0.77;;
40997;SDS011;26740;45.944;12.480;2022-11-20T14:02:17;2.03;;;1.05;;
40997;SDS011;26740;45.944;12.480;2022-11-20T14:04:45;2.78;;;0.95;;
40997;SDS011;26740;45.944;12.480;2022-11-20T14:07:14;3.75;;;1.20;;
40997;SDS011;26740;45.944;12.480;2022-11-20T14:09:49;2.75;;;1.13;;
40997;SDS011;26740;45.944;12.480;2022-11-20T14:12:17;3.65;;;1.35;;
40997;SDS011;26740;45.944;12.480;2022-11-20T14:14:49;2.85;;;1.30;;
40997;SDS011;26740;45.944;12.480;2022-11-20T14:17:33;2.33;;;1.27;;
40997;SDS011;26740;45.944;12.480;2022-11-20T14:20:04;2.50;;;1.00;;
40997;SDS011;26740;45.944;12.480;2022-11-20T14:22:32;4.25;;;2.17;;
40997;SDS011;26740;45.944;12.480;2022-11-20T14:27:36;2.60;;;1.10;;
40997;SDS011;26740;45.944;12.480;2022-11-20T14:30:04;2.05;;;0.93;;
40997;SDS011;26740;45.944;12.480;2022-11-20T14:32:31;2.72;;;1.02;;
40997;SDS011;26740;45.944;12.480;2022-11-20T14:35:02;2.13;;;0.70;;
40997;SDS011;26740;45.944;12.480;2022-11-20T14:37:35;2.42;;;1.00;;
40997;SDS011;26740;45.944;12.480;2022-11-20T14:40:05;1.67;;;1.00;;
40997;SDS011;26740;45.944;12.480;2022-11-20T14:42:47;2.15;;;0.95;;
40997;SDS011;26740;45.944;12.480;2022-11-20T14:45:13;6.43;;;1.10;;
40997;SDS011;26740;45.944;12.480;2022-11-20T14:47:41;2.35;;;1.20;;
40997;SDS011;26740;45.944;12.480;2022-11-20T14:50:24;6.25;;;1.58;;
40997;SDS011;26740;45.944;12.480;2022-11-20T14:55:26;2.72;;;1.65;;
40997;SDS011;26740;45.944;12.480;2022-11-20T14:58:03;2.45;;;1.25;;
40997;SDS011;26740;45.944;12.480;2022-11-20T15:00:59;3.05;;;1.50;;
40997;SDS011;26740;45.944;12.480;2022-11-20T15:06:00;2.10;;;1.52;;
40997;SDS011;26740;45.944;12.480;2022-11-20T15:08:26;2.78;;;1.80;;
40997;SDS011;26740;45.944;12.480;2022-11-20T15:10:52;2.78;;;1.35;;
40997;SDS011;26740;45.944;12.480;2022-11-20T15:13:32;3.15;;;1.60;;
40997;SDS011;26740;45.944;12.480;2022-11-20T15:16:02;3.72;;;1.30;;
40997;SDS011;26740;45.944;12.480;2022-11-20T15:18:37;4.63;;;1.33;;
40997;SDS011;26740;45.944;12.480;2022-11-20T15:21:13;3.25;;;1.38;;
40997;SDS011;26740;45.944;12.480;2022-11-20T15:23:41;2.80;;;1.42;;
40997;SDS011;26740;45.944;12.480;2022-11-20T15:26:07;3.80;;;1.50;;
40997;SDS011;26740;45.944;12.480;2022-11-20T15:28:35;6.22;;;1.40;;
40997;SDS011;26740;45.944;12.480;2022-11-20T15:31:04;3.73;;;1.23;;
40997;SDS011;26740;45.944;12.480;2022-11-20T15:33:31;2.50;;;1.50;;
40997;SDS011;26740;45.944;12.480;2022-11-20T15:35:58;4.50;;;2.08;;
40997;SDS011;26740;45.944;12.480;2022-11-20T15:38:24;3.90;;;1.90;;
40997;SDS011;26740;45.944;12.480;2022-11-20T15:40:50;5.22;;;1.52;;
40997;SDS011;26740;45.944;12.480;2022-11-20T15:43:16;2.85;;;1.20;;
40997;SDS011;26740;45.944;12.480;2022-11-20T15:45:48;4.45;;;2.33;;
40997;SDS011;26740;45.944;12.480;2022-11-20T15:48:19;4.53;;;1.83;;
40997;SDS011;26740;45.944;12.480;2022-11-20T15:50:51;10.15;;;1.80;;
40997;SDS011;26740;45.944;12.480;2022-11-20T15:53:22;4.47;;;2.42;;
40997;SDS011;26740;45.944;12.480;2022-11-20T15:55:48;6.60;;;3.35;;
40997;SDS011;26740;45.944;12.480;2022-11-20T15:58:14;7.07;;;4.22;;
40997;SDS011;26740;45.944;12.480;2022-11-20T16:00:41;9.77;;;4.90;;
40997;SDS011;26740;45.944;12.480;2022-11-20T16:03:09;10.82;;;4.65;;
40997;SDS011;26740;45.944;12.480;2022-11-20T16:05:36;5.57;;;3.75;;
40997;SDS011;26740;45.944;12.480;2022-11-20T16:08:02;9.95;;;3.78;;
40997;SDS011;26740;45.944;12.480;2022-11-20T16:10:28;5.07;;;2.58;;
40997;SDS011;26740;45.944;12.480;2022-11-20T16:12:54;5.45;;;3.33;;
40997;SDS011;26740;45.944;12.480;2022-11-20T16:15:38;7.28;;;3.88;;
40997;SDS011;26740;45.944;12.480;2022-11-20T16:18:18;7.47;;;4.32;;
40997;SDS011;26740;45.944;12.480;2022-11-20T16:20:46;8.10;;;4.70;;
40997;SDS011;26740;45.944;12.480;2022-11-20T16:23:14;10.40;;;5.43;;
40997;SDS011;26740;45.944;12.480;2022-11-20T16:25:41;16.55;;;6.50;;
40997;SDS011;26740;45.944;12.480;2022-11-20T16:28:08;9.38;;;5.57;;
40997;SDS011;26740;45.944;12.480;2022-11-20T16:30:34;13.25;;;5.93;;
40997;SDS011;26740;45.944;12.480;2022-11-20T16:33:00;7.82;;;5.50;;
40997;SDS011;26740;45.944;12.480;2022-11-20T16:35:27;9.73;;;5.03;;
40997;SDS011;26740;45.944;12.480;2022-11-20T16:37:54;10.88;;;4.90;;